createdAt,value
2019-02-25T00:00:54.158Z,15.35
2019-02-25T00:02:03.169Z,14.83
2019-02-25T00:03:07.814Z,17.95
2019-02-25T00:04:12.429Z,16.85
2019-02-25T00:05:17.022Z,16.97
2019-02-25T00:06:21.670Z,14.73
2019-02-25T00:07:26.319Z,17.75
2019-02-25T00:08:32.196Z,18.05
2019-02-25T00:09:36.891Z,17.70
2019-02-25T00:10:41.491Z,14.78
2019-02-25T00:11:46.064Z,14.75
2019-02-25T00:12:50.702Z,14.38
2019-02-25T00:13:55.289Z,17.90
2019-02-25T00:14:59.907Z,17.65
2019-02-25T00:16:04.580Z,16.12
2019-02-25T00:17:09.183Z,15.80
2019-02-25T00:18:13.843Z,14.25
2019-02-25T00:19:18.457Z,14.85
2019-02-25T00:20:23.159Z,14.30
2019-02-25T00:21:27.746Z,14.10
2019-02-25T00:22:32.391Z,15.53
2019-02-25T00:23:37.005Z,15.72
2019-02-25T00:24:41.603Z,15.60
2019-02-25T00:25:46.202Z,15.88
2019-02-25T00:26:50.847Z,15.68
2019-02-25T00:27:55.535Z,14.58
2019-02-25T00:29:00.166Z,14.30
2019-02-25T00:30:05.848Z,14.70
2019-02-25T00:31:10.534Z,15.90
2019-02-25T00:32:15.110Z,14.75
2019-02-25T00:33:19.712Z,17.52
2019-02-25T00:34:24.318Z,17.57
2019-02-25T00:35:28.924Z,15.72
2019-02-25T00:36:33.522Z,14.63
2019-02-25T00:37:38.130Z,15.28
2019-02-25T00:38:42.963Z,14.60
2019-02-25T00:39:47.617Z,14.28
2019-02-25T00:40:52.210Z,15.03
2019-02-25T00:41:56.825Z,14.90
2019-02-25T00:43:01.382Z,13.68
2019-02-25T00:44:05.994Z,14.05
2019-02-25T00:45:10.705Z,14.90
2019-02-25T00:46:15.322Z,15.00
2019-02-25T00:47:19.906Z,14.85
2019-02-25T00:48:24.507Z,15.88
2019-02-25T00:49:29.081Z,13.78
2019-02-25T00:50:33.651Z,14.20
2019-02-25T00:51:38.238Z,15.63
2019-02-25T00:52:42.978Z,14.80
2019-02-25T00:53:47.599Z,14.93
2019-02-25T00:54:52.172Z,13.83
2019-02-25T00:55:56.830Z,17.32
2019-02-25T00:57:01.426Z,14.65
2019-02-25T00:58:06.086Z,14.78
2019-02-25T00:59:10.642Z,15.53
2019-02-25T01:00:16.297Z,14.03
2019-02-25T01:01:21.847Z,15.15
2019-02-25T01:02:26.483Z,14.70
2019-02-25T01:03:31.122Z,14.28
2019-02-25T01:04:35.684Z,14.43
2019-02-25T01:05:40.368Z,15.25
2019-02-25T01:06:44.957Z,14.03
2019-02-25T01:07:49.622Z,14.80
2019-02-25T01:08:54.639Z,14.78
2019-02-25T01:09:59.274Z,15.08
2019-02-25T01:11:04.371Z,13.35
2019-02-25T01:12:09.983Z,15.98
2019-02-25T01:13:14.604Z,15.60
2019-02-25T01:14:19.213Z,14.47
2019-02-25T01:15:23.774Z,15.32
2019-02-25T01:16:28.350Z,14.10
2019-02-25T01:17:32.921Z,14.15
2019-02-25T01:18:37.533Z,14.20
2019-02-25T01:19:42.092Z,14.58
2019-02-25T01:20:46.646Z,15.18
2019-02-25T01:21:51.239Z,14.20
2019-02-25T01:22:55.802Z,14.28
2019-02-25T01:24:00.431Z,14.25
2019-02-25T01:25:07.072Z,14.90
2019-02-25T01:26:11.620Z,14.38
2019-02-25T01:27:16.240Z,14.43
2019-02-25T01:28:20.846Z,14.38
2019-02-25T01:29:25.415Z,14.35
2019-02-25T01:30:30.001Z,14.85
2019-02-25T01:31:34.593Z,15.00
2019-02-25T01:32:39.244Z,14.45
2019-02-25T01:33:43.883Z,15.10
2019-02-25T01:34:48.505Z,14.10
2019-02-25T01:35:53.333Z,21.75
2019-02-25T01:36:57.929Z,16.45
2019-02-25T01:38:02.598Z,14.20
2019-02-25T01:39:08.239Z,14.70
2019-02-25T01:40:13.076Z,14.85
2019-02-25T01:41:17.694Z,14.85
2019-02-25T01:42:22.287Z,13.80
2019-02-25T01:43:26.942Z,13.48
2019-02-25T01:44:31.524Z,14.60
2019-02-25T01:45:36.100Z,14.23
2019-02-25T01:46:40.678Z,13.50
2019-02-25T01:47:45.358Z,13.43
2019-02-25T01:48:49.971Z,15.85
2019-02-25T01:49:54.587Z,14.18
2019-02-25T01:50:59.371Z,18.00
2019-02-25T01:52:04.086Z,15.00
2019-02-25T01:53:08.730Z,14.20
2019-02-25T01:54:13.357Z,16.57
2019-02-25T01:55:18.053Z,14.83
2019-02-25T01:56:22.733Z,13.95
2019-02-25T01:57:27.343Z,13.62
2019-02-25T01:58:31.931Z,14.13
2019-02-25T01:59:36.514Z,13.78
2019-02-25T02:00:41.116Z,13.80
2019-02-25T02:01:45.682Z,12.88
2019-02-25T02:02:50.290Z,13.43
2019-02-25T02:03:54.859Z,12.88
2019-02-25T02:04:59.424Z,12.88
2019-02-25T02:06:04.139Z,14.03
2019-02-25T02:07:08.691Z,14.65
2019-02-25T02:08:13.282Z,15.08
2019-02-25T02:09:17.992Z,13.62
2019-02-25T02:10:22.626Z,13.93
2019-02-25T02:11:27.203Z,14.73
2019-02-25T02:12:32.284Z,13.53
2019-02-25T02:13:36.860Z,14.10
2019-02-25T02:14:41.458Z,14.85
2019-02-25T02:15:45.999Z,14.13
2019-02-25T02:16:50.627Z,12.90
2019-02-25T02:17:55.195Z,13.43
2019-02-25T02:18:59.771Z,14.50
2019-02-25T02:20:05.265Z,14.60
2019-02-25T02:21:11.009Z,14.68
2019-02-25T02:22:15.685Z,13.10
2019-02-25T02:23:20.302Z,13.28
2019-02-25T02:24:24.884Z,14.15
2019-02-25T02:25:29.510Z,13.40
2019-02-25T02:26:34.108Z,14.10
2019-02-25T02:27:38.684Z,13.08
2019-02-25T02:28:43.302Z,13.62
2019-02-25T02:29:47.858Z,13.38
2019-02-25T02:30:52.516Z,13.50
2019-02-25T02:31:58.227Z,14.05
2019-02-25T02:33:02.800Z,13.62
2019-02-25T02:34:07.520Z,14.43
2019-02-25T02:35:12.199Z,13.83
2019-02-25T02:36:17.158Z,13.60
2019-02-25T02:37:22.460Z,13.10
2019-02-25T02:38:27.116Z,13.00
2019-02-25T02:39:31.954Z,13.22
2019-02-25T02:40:36.581Z,13.68
2019-02-25T02:42:11.179Z,13.45
2019-02-25T02:43:16.207Z,11.95
2019-02-25T02:44:21.094Z,13.75
2019-02-25T02:45:51.337Z,12.88
2019-02-25T02:47:11.491Z,12.78
2019-02-25T02:48:22.995Z,11.73
2019-02-25T02:49:28.943Z,13.75
2019-02-25T02:50:33.559Z,12.88
2019-02-25T02:51:38.753Z,12.45
2019-02-25T02:52:43.465Z,12.60
2019-02-25T02:53:48.858Z,13.00
2019-02-25T02:54:53.471Z,13.30
2019-02-25T02:55:58.100Z,12.70
2019-02-25T02:57:02.744Z,13.15
2019-02-25T02:58:07.344Z,12.37
2019-02-25T02:59:12.006Z,12.40
2019-02-25T03:00:18.038Z,12.35
2019-02-25T03:01:22.688Z,12.60
2019-02-25T03:02:27.739Z,11.78
2019-02-25T03:03:32.654Z,12.40
2019-02-25T03:04:37.624Z,12.78
2019-02-25T03:05:42.357Z,12.73
2019-02-25T03:06:48.019Z,12.10
2019-02-25T03:07:52.696Z,11.30
2019-02-25T03:08:57.281Z,12.60
2019-02-25T03:10:01.835Z,12.45
2019-02-25T03:11:06.675Z,13.05
2019-02-25T03:12:11.303Z,12.37
2019-02-25T03:13:15.876Z,12.20
2019-02-25T03:14:20.484Z,13.03
2019-02-25T03:15:25.211Z,12.85
2019-02-25T03:16:29.815Z,12.93
2019-02-25T03:17:34.430Z,12.98
2019-02-25T03:18:38.998Z,12.33
2019-02-25T03:19:45.406Z,12.80
2019-02-25T03:20:50.361Z,13.53
2019-02-25T03:21:54.962Z,12.55
2019-02-25T03:22:59.575Z,13.10
2019-02-25T03:24:04.189Z,13.62
2019-02-25T03:25:11.107Z,12.20
2019-02-25T03:26:16.281Z,12.80
2019-02-25T03:27:20.848Z,13.50
2019-02-25T03:28:26.393Z,13.30
2019-02-25T03:29:30.949Z,13.40
2019-02-25T03:30:35.717Z,13.08
2019-02-25T03:31:40.364Z,12.47
2019-02-25T03:32:46.342Z,12.88
2019-02-25T03:33:51.412Z,12.88
2019-02-25T03:34:56.009Z,13.30
2019-02-25T03:36:00.773Z,13.13
2019-02-25T03:37:05.359Z,14.25
2019-02-25T03:38:10.003Z,12.25
2019-02-25T03:39:15.606Z,12.82
2019-02-25T03:40:20.812Z,13.03
2019-02-25T03:41:25.465Z,13.95
2019-02-25T03:42:30.143Z,13.03
2019-02-25T03:43:34.697Z,12.80
2019-02-25T03:44:39.261Z,13.20
2019-02-25T03:45:43.855Z,12.20
2019-02-25T03:46:48.777Z,12.43
2019-02-25T03:47:53.931Z,12.80
2019-02-25T03:48:58.571Z,13.65
2019-02-25T03:50:04.183Z,13.35
2019-02-25T03:51:08.825Z,11.53
2019-02-25T03:52:13.394Z,13.20
2019-02-25T03:53:18.122Z,12.40
2019-02-25T03:54:22.673Z,12.30
2019-02-25T03:55:27.676Z,13.43
2019-02-25T03:56:32.709Z,13.72
2019-02-25T03:57:37.695Z,12.73
2019-02-25T03:58:42.309Z,12.43
2019-02-25T03:59:46.987Z,12.75
2019-02-25T04:00:51.623Z,12.98
2019-02-25T04:01:56.242Z,13.08
2019-02-25T04:03:00.860Z,12.82
2019-02-25T04:04:05.607Z,13.20
2019-02-25T04:05:10.382Z,12.23
2019-02-25T04:06:15.109Z,13.00
2019-02-25T04:07:19.706Z,12.88
2019-02-25T04:08:24.360Z,12.95
2019-02-25T04:09:28.985Z,12.70
2019-02-25T04:10:33.599Z,13.18
2019-02-25T04:11:38.184Z,12.75
2019-02-25T04:12:43.176Z,13.45
2019-02-25T04:13:48.167Z,13.25
2019-02-25T04:14:53.066Z,13.18
2019-02-25T04:15:57.659Z,13.83
2019-02-25T04:17:03.337Z,14.23
2019-02-25T04:18:07.936Z,13.05
2019-02-25T04:19:12.546Z,12.47
2019-02-25T04:20:17.198Z,12.63
2019-02-25T04:21:21.820Z,13.60
2019-02-25T04:22:26.478Z,13.62
2019-02-25T04:23:31.349Z,13.58
2019-02-25T04:24:36.057Z,11.97
2019-02-25T04:25:40.614Z,12.63
2019-02-25T04:26:45.222Z,13.68
2019-02-25T04:27:49.809Z,13.70
2019-02-25T04:28:54.368Z,12.28
2019-02-25T04:29:58.959Z,12.88
2019-02-25T04:31:03.584Z,12.75
2019-02-25T04:32:08.240Z,13.62
2019-02-25T04:33:12.859Z,12.18
2019-02-25T04:34:17.445Z,12.75
2019-02-25T04:35:22.019Z,13.53
2019-02-25T04:36:26.670Z,13.30
2019-02-25T04:37:31.275Z,13.93
2019-02-25T04:38:35.869Z,13.40
2019-02-25T04:39:40.451Z,13.10
2019-02-25T04:40:45.218Z,12.78
2019-02-25T04:41:49.782Z,13.50
2019-02-25T04:42:54.437Z,14.30
2019-02-25T04:43:59.479Z,12.73
2019-02-25T04:45:05.167Z,12.82
2019-02-25T04:46:09.716Z,13.00
2019-02-25T04:47:14.333Z,13.08
2019-02-25T04:48:18.936Z,13.83
2019-02-25T04:49:23.525Z,13.05
2019-02-25T04:50:28.106Z,12.70
2019-02-25T04:51:32.664Z,14.05
2019-02-25T04:52:37.352Z,12.47
2019-02-25T04:53:42.573Z,13.30
2019-02-25T04:54:47.606Z,13.13
2019-02-25T04:55:52.659Z,13.05
2019-02-25T04:56:57.709Z,12.70
2019-02-25T04:58:02.675Z,13.05
2019-02-25T04:59:07.940Z,13.40
2019-02-25T05:00:14.874Z,13.05
2019-02-25T05:01:19.876Z,12.93
2019-02-25T05:02:24.484Z,13.70
2019-02-25T05:03:29.068Z,13.50
2019-02-25T05:04:33.900Z,12.60
2019-02-25T05:05:38.531Z,12.63
2019-02-25T05:06:43.098Z,12.75
2019-02-25T05:07:47.794Z,14.25
2019-02-25T05:08:52.429Z,13.13
2019-02-25T05:09:57.022Z,15.13
2019-02-25T05:11:01.926Z,13.45
2019-02-25T05:12:06.813Z,13.30
2019-02-25T05:13:12.199Z,14.35
2019-02-25T05:14:17.311Z,13.70
2019-02-25T05:15:23.988Z,14.47
2019-02-25T05:16:29.104Z,13.60
2019-02-25T05:17:34.700Z,13.83
2019-02-25T05:18:39.786Z,13.40
2019-02-25T05:19:44.956Z,13.28
2019-02-25T05:20:50.015Z,13.75
2019-02-25T05:21:56.187Z,12.82
2019-02-25T05:23:01.229Z,13.50
2019-02-25T05:24:06.168Z,14.05
2019-02-25T05:25:11.285Z,12.85
2019-02-25T05:26:16.251Z,13.95
2019-02-25T05:27:21.527Z,13.85
2019-02-25T05:28:26.848Z,13.40
2019-02-25T05:29:35.343Z,13.60
2019-02-25T05:30:42.448Z,13.40
2019-02-25T05:31:47.069Z,13.40
2019-02-25T05:32:52.333Z,13.83
2019-02-25T05:33:57.161Z,13.88
2019-02-25T05:35:02.432Z,14.15
2019-02-25T05:36:08.383Z,13.95
2019-02-25T05:37:14.195Z,13.62
2019-02-25T05:38:20.393Z,13.48
2019-02-25T05:39:26.233Z,14.10
2019-02-25T05:40:31.319Z,14.20
2019-02-25T05:41:35.976Z,14.38
2019-02-25T05:42:40.673Z,14.28
2019-02-25T05:43:45.488Z,15.10
2019-02-25T05:44:51.117Z,14.05
2019-02-25T05:45:55.740Z,14.38
2019-02-25T05:47:00.611Z,13.70
2019-02-25T05:48:05.389Z,14.68
2019-02-25T05:49:10.068Z,14.90
2019-02-25T05:50:15.025Z,13.53
2019-02-25T05:51:20.476Z,14.40
2019-02-25T05:52:26.037Z,15.08
2019-02-25T05:53:30.642Z,14.18
2019-02-25T05:54:38.603Z,14.25
2019-02-25T05:55:44.286Z,14.38
2019-02-25T05:56:49.123Z,13.65
2019-02-25T05:58:12.990Z,14.43
2019-02-25T05:59:17.559Z,13.53
2019-02-25T06:00:25.211Z,14.15
2019-02-25T06:01:29.794Z,14.13
2019-02-25T06:02:34.424Z,13.62
2019-02-25T06:03:39.321Z,14.80
2019-02-25T06:04:44.904Z,14.40
2019-02-25T06:05:49.749Z,14.23
2019-02-25T06:06:54.359Z,13.95
2019-02-25T06:07:59.285Z,14.63
2019-02-25T06:09:06.442Z,14.83
2019-02-25T06:10:11.303Z,14.98
2019-02-25T06:11:15.895Z,16.02
2019-02-25T06:12:20.499Z,16.27
2019-02-25T06:13:25.176Z,15.65
2019-02-25T06:14:31.178Z,16.70
2019-02-25T06:15:35.843Z,16.32
2019-02-25T06:16:40.632Z,15.00
2019-02-25T06:17:45.653Z,14.15
2019-02-25T06:18:50.329Z,15.48
2019-02-25T06:19:55.004Z,23.27
2019-02-25T06:20:59.631Z,19.17
2019-02-25T06:22:04.273Z,21.00
2019-02-25T06:23:08.824Z,20.62
2019-02-25T06:24:13.452Z,15.43
2019-02-25T06:25:18.192Z,14.05
2019-02-25T06:26:22.772Z,15.43
2019-02-25T06:27:30.751Z,15.15
2019-02-25T06:28:33.670Z,15.70
2019-02-25T06:29:38.291Z,13.83
2019-02-25T06:30:43.004Z,14.53
2019-02-25T06:31:47.574Z,15.00
2019-02-25T06:32:52.160Z,15.20
2019-02-25T06:33:56.823Z,15.80
2019-02-25T06:35:01.462Z,14.93
2019-02-25T06:36:06.052Z,14.63
2019-02-25T06:37:10.619Z,15.32
2019-02-25T06:38:15.218Z,16.60
2019-02-25T06:39:19.818Z,13.22
2019-02-25T06:40:24.396Z,14.53
2019-02-25T06:41:29.015Z,14.55
2019-02-25T06:42:33.587Z,14.40
2019-02-25T06:43:38.159Z,13.93
2019-02-25T06:44:42.748Z,14.35
2019-02-25T06:45:47.339Z,13.83
2019-02-25T06:46:51.956Z,14.73
2019-02-25T06:47:56.694Z,14.40
2019-02-25T06:49:01.292Z,16.45
2019-02-25T06:50:06.597Z,14.98
2019-02-25T06:51:12.155Z,15.72
2019-02-25T06:52:16.757Z,14.87
2019-02-25T06:53:21.331Z,15.88
2019-02-25T06:54:25.947Z,15.85
2019-02-25T06:55:30.602Z,15.55
2019-02-25T06:56:35.203Z,14.93
2019-02-25T06:57:39.851Z,14.85
2019-02-25T06:58:44.448Z,15.08
2019-02-25T06:59:49.439Z,14.07
2019-02-25T07:00:54.079Z,14.90
2019-02-25T07:01:58.905Z,18.30
2019-02-25T07:03:03.722Z,15.93
2019-02-25T07:04:15.845Z,14.55
2019-02-25T07:05:36.881Z,13.08
2019-02-25T07:06:55.417Z,14.75
2019-02-25T07:08:10.128Z,15.45
2019-02-25T07:09:27.907Z,15.45
2019-02-25T07:10:41.684Z,15.80
2019-02-25T07:11:53.375Z,15.98
2019-02-25T07:13:09.360Z,16.52
2019-02-25T07:14:20.615Z,15.72
2019-02-25T07:15:50.415Z,14.95
2019-02-25T07:17:05.559Z,14.58
2019-02-25T07:18:17.262Z,15.83
2019-02-25T07:19:44.794Z,14.90
2019-02-25T07:20:58.998Z,15.98
2019-02-25T07:22:16.091Z,14.58
2019-02-25T07:23:52.247Z,15.13
2019-02-25T07:25:15.125Z,14.60
2019-02-25T07:26:37.594Z,15.25
2019-02-25T07:28:00.242Z,14.95
2019-02-25T07:29:22.644Z,14.70
2019-02-25T07:30:41.143Z,15.03
2019-02-25T07:32:14.634Z,14.78
2019-02-25T07:33:28.364Z,15.93
2019-02-25T07:34:45.922Z,14.10
2019-02-25T07:36:01.900Z,15.63
2019-02-25T07:37:14.699Z,15.60
2019-02-25T07:38:26.657Z,14.95
2019-02-25T07:39:41.040Z,17.37
2019-02-25T07:41:20.184Z,17.95
2019-02-25T07:42:42.933Z,16.00
2019-02-25T07:44:00.654Z,15.18
2019-02-25T07:45:14.327Z,15.70
2019-02-25T07:46:53.340Z,16.77
2019-02-25T07:48:03.899Z,14.43
2019-02-25T07:49:32.718Z,16.42
2019-02-25T07:51:11.580Z,15.93
2019-02-25T07:52:31.510Z,15.00
2019-02-25T07:53:52.446Z,16.00
2019-02-25T07:55:16.188Z,14.73
2019-02-25T07:56:33.742Z,15.20
2019-02-25T07:57:53.766Z,16.15
2019-02-25T07:59:07.124Z,16.23
2019-02-25T08:00:16.223Z,15.70
2019-02-25T08:01:38.724Z,16.57
2019-02-25T08:02:50.516Z,16.50
2019-02-25T08:04:04.861Z,15.60
2019-02-25T08:05:27.779Z,16.37
2019-02-25T08:06:38.206Z,16.60
2019-02-25T08:07:56.507Z,15.05
2019-02-25T08:09:19.191Z,15.95
2019-02-25T08:10:45.706Z,15.98
2019-02-25T08:12:08.648Z,16.93
2019-02-25T08:13:21.230Z,16.00
2019-02-25T08:14:43.834Z,17.12
2019-02-25T08:16:06.611Z,17.55
2019-02-25T08:17:23.064Z,16.85
2019-02-25T08:18:45.916Z,16.77
2019-02-25T08:20:08.278Z,18.70
2019-02-25T08:21:34.251Z,16.70
2019-02-25T08:22:57.031Z,18.00
2019-02-25T08:24:17.994Z,18.80
2019-02-25T08:25:37.117Z,20.62
2019-02-25T08:26:59.861Z,20.52
2019-02-25T08:28:20.403Z,19.05
2019-02-25T08:29:36.595Z,19.55
2019-02-25T08:30:58.992Z,24.50
2019-02-25T08:32:10.299Z,21.85
2019-02-25T08:33:34.058Z,21.80
2019-02-25T08:34:55.479Z,18.40
2019-02-25T08:36:51.378Z,22.20
2019-02-25T08:38:05.974Z,18.75
2019-02-25T08:39:19.147Z,18.77
2019-02-25T08:40:58.652Z,21.10
2019-02-25T08:42:28.470Z,18.95
2019-02-25T08:43:47.242Z,19.98
2019-02-25T08:44:58.183Z,21.48
2019-02-25T08:46:10.496Z,20.85
2019-02-25T08:47:28.499Z,22.87
2019-02-25T08:48:36.866Z,20.35
2019-02-25T08:49:48.842Z,23.12
2019-02-25T08:50:53.408Z,20.92
2019-02-25T08:51:58.074Z,21.35
2019-02-25T08:53:02.650Z,19.75
2019-02-25T08:54:07.280Z,20.43
2019-02-25T08:55:12.017Z,24.85
2019-02-25T08:56:16.814Z,22.42
2019-02-25T08:57:21.536Z,21.10
2019-02-25T08:58:26.187Z,25.60
2019-02-25T08:59:30.912Z,20.32
2019-02-25T09:00:36.261Z,22.70
2019-02-25T09:01:41.028Z,20.75
2019-02-25T09:02:45.705Z,21.05
2019-02-25T09:03:50.266Z,20.82
2019-02-25T09:04:55.236Z,22.48
2019-02-25T09:05:59.827Z,21.07
2019-02-25T09:07:04.410Z,23.87
2019-02-25T09:08:10.152Z,20.72
2019-02-25T09:09:14.754Z,21.95
2019-02-25T09:10:19.408Z,24.32
2019-02-25T09:11:24.091Z,24.80
2019-02-25T09:12:28.709Z,24.67
2019-02-25T09:13:33.313Z,22.25
2019-02-25T09:14:37.910Z,22.85
2019-02-25T09:15:42.541Z,24.32
2019-02-25T09:16:48.218Z,21.87
2019-02-25T09:17:51.585Z,24.25
2019-02-25T09:18:57.931Z,34.85
2019-02-25T09:20:02.685Z,31.05
2019-02-25T09:21:08.215Z,23.45
2019-02-25T09:22:18.266Z,35.73
2019-02-25T09:23:22.866Z,27.82
2019-02-25T09:24:27.669Z,44.95
2019-02-25T09:25:32.302Z,22.20
2019-02-25T09:26:36.919Z,22.62
2019-02-25T09:27:41.795Z,30.82
2019-02-25T09:28:46.400Z,24.27
2019-02-25T09:29:51.011Z,34.63
2019-02-25T09:30:56.593Z,37.03
2019-02-25T09:32:02.355Z,23.27
2019-02-25T09:33:07.565Z,22.98
2019-02-25T09:34:12.548Z,20.95
2019-02-25T09:35:17.164Z,21.45
2019-02-25T09:36:21.769Z,23.27
2019-02-25T09:37:26.406Z,27.90
2019-02-25T09:38:31.521Z,21.85
2019-02-25T09:39:36.115Z,22.80
2019-02-25T09:40:42.336Z,24.65
2019-02-25T09:41:47.023Z,22.00
2019-02-25T09:42:51.639Z,20.43
2019-02-25T09:43:56.249Z,21.45
2019-02-25T09:45:00.860Z,21.12
2019-02-25T09:46:05.515Z,21.35
2019-02-25T09:47:10.219Z,22.90
2019-02-25T09:48:14.845Z,21.00
2019-02-25T09:49:19.430Z,21.57
2019-02-25T09:50:24.015Z,22.70
2019-02-25T09:51:28.593Z,25.45
2019-02-25T09:52:33.234Z,23.70
2019-02-25T09:53:37.819Z,22.13
2019-02-25T09:54:42.463Z,24.98
2019-02-25T09:55:47.055Z,23.25
2019-02-25T09:56:51.713Z,21.77
2019-02-25T09:57:56.364Z,23.57
2019-02-25T09:59:00.948Z,24.40
2019-02-25T10:00:06.850Z,21.87
2019-02-25T10:01:11.652Z,25.00
2019-02-25T10:02:16.364Z,20.97
2019-02-25T10:03:21.034Z,23.50
2019-02-25T10:04:26.235Z,22.82
2019-02-25T10:05:31.225Z,24.18
2019-02-25T10:06:35.815Z,23.02
2019-02-25T10:07:41.384Z,22.45
2019-02-25T10:08:46.545Z,22.82
2019-02-25T10:09:51.366Z,22.20
2019-02-25T10:10:56.021Z,25.72
2019-02-25T10:12:00.744Z,23.80
2019-02-25T10:13:05.366Z,22.77
2019-02-25T10:14:10.005Z,24.00
2019-02-25T10:15:15.338Z,24.05
2019-02-25T10:16:19.955Z,24.25
2019-02-25T10:17:24.548Z,24.70
2019-02-25T10:18:29.165Z,25.62
2019-02-25T10:19:34.824Z,23.62
2019-02-25T10:20:39.562Z,24.10
2019-02-25T10:21:44.159Z,25.48
2019-02-25T10:22:48.777Z,24.85
2019-02-25T10:23:53.531Z,25.85
2019-02-25T10:24:58.101Z,24.70
2019-02-25T10:26:02.665Z,24.80
2019-02-25T10:27:07.238Z,26.27
2019-02-25T10:28:11.848Z,25.27
2019-02-25T10:29:16.546Z,25.05
2019-02-25T10:30:21.971Z,25.05
2019-02-25T10:31:26.568Z,25.70
2019-02-25T10:32:31.356Z,25.92
2019-02-25T10:33:36.247Z,25.90
2019-02-25T10:34:40.875Z,27.73
2019-02-25T10:35:45.586Z,26.23
2019-02-25T10:36:51.908Z,27.50
2019-02-25T10:37:56.499Z,31.27
2019-02-25T10:39:01.256Z,25.95
2019-02-25T10:40:09.122Z,26.48
2019-02-25T10:41:13.704Z,38.15
2019-02-25T10:42:18.347Z,34.45
2019-02-25T10:43:23.309Z,28.85
2019-02-25T10:44:31.494Z,27.13
2019-02-25T10:45:37.227Z,28.42
2019-02-25T10:46:42.868Z,26.82
2019-02-25T10:47:49.467Z,28.73
2019-02-25T10:48:56.865Z,26.07
2019-02-25T10:50:03.131Z,27.60
2019-02-25T10:51:09.308Z,26.40
2019-02-25T10:52:15.162Z,25.48
2019-02-25T10:53:22.112Z,28.23
2019-02-25T10:54:27.843Z,26.60
2019-02-25T10:55:35.535Z,29.80
2019-02-25T10:56:47.424Z,30.68
2019-02-25T10:57:54.982Z,34.23
2019-02-25T10:59:00.256Z,26.90
2019-02-25T11:00:09.542Z,24.92
2019-02-25T11:01:17.511Z,26.00
2019-02-25T11:02:21.091Z,26.40
2019-02-25T11:03:25.711Z,24.20
2019-02-25T11:04:30.475Z,25.88
2019-02-25T11:05:35.092Z,24.75
2019-02-25T11:06:39.688Z,24.20
2019-02-25T11:07:44.377Z,25.05
2019-02-25T11:08:54.383Z,27.93
2019-02-25T11:10:22.360Z,26.00
2019-02-25T11:11:30.581Z,24.92
2019-02-25T11:12:35.200Z,40.03
2019-02-25T11:13:39.779Z,25.25
2019-02-25T11:14:45.294Z,24.15
2019-02-25T11:15:49.992Z,25.48
2019-02-25T11:16:55.643Z,24.18
2019-02-25T11:18:00.254Z,28.30
2019-02-25T11:19:05.092Z,33.30
2019-02-25T11:20:10.671Z,26.48
2019-02-25T11:21:15.293Z,24.02
2019-02-25T11:22:19.915Z,23.95
2019-02-25T11:23:24.564Z,23.70
2019-02-25T11:24:29.463Z,25.27
2019-02-25T11:25:34.174Z,25.12
2019-02-25T11:26:38.742Z,29.52
2019-02-25T11:27:43.362Z,23.52
2019-02-25T11:28:48.032Z,32.13
2019-02-25T11:29:52.618Z,24.10
2019-02-25T11:30:57.250Z,28.25
2019-02-25T11:32:01.897Z,27.30
2019-02-25T11:33:06.475Z,25.52
2019-02-25T11:34:11.098Z,24.45
2019-02-25T11:35:15.912Z,23.98
2019-02-25T11:36:21.995Z,25.40
2019-02-25T11:37:27.072Z,24.90
2019-02-25T11:38:35.452Z,22.50
2019-02-25T11:39:38.236Z,24.77
2019-02-25T11:40:42.873Z,25.95
2019-02-25T11:41:49.498Z,29.05
2019-02-25T11:42:54.102Z,28.45
2019-02-25T11:43:58.785Z,40.30
2019-02-25T11:45:04.557Z,23.27
2019-02-25T11:46:09.293Z,28.80
2019-02-25T11:47:13.987Z,25.88
2019-02-25T11:48:18.670Z,26.90
2019-02-25T11:49:23.540Z,24.10
2019-02-25T11:50:28.211Z,26.37
2019-02-25T11:51:32.781Z,23.95
2019-02-25T11:52:37.392Z,34.48
2019-02-25T11:53:42.009Z,24.45
2019-02-25T11:54:46.651Z,26.73
2019-02-25T11:55:51.411Z,25.00
2019-02-25T11:56:56.055Z,26.07
2019-02-25T11:58:00.679Z,27.65
2019-02-25T11:59:05.431Z,26.68
2019-02-25T12:00:16.812Z,23.52
2019-02-25T12:01:21.461Z,24.05
2019-02-25T12:02:26.227Z,23.30
2019-02-25T12:03:31.007Z,23.62
2019-02-25T12:04:35.610Z,22.22
2019-02-25T12:05:40.247Z,28.27
2019-02-25T12:06:44.886Z,23.87
2019-02-25T12:07:49.674Z,28.45
2019-02-25T12:08:54.273Z,22.87
2019-02-25T12:09:58.887Z,23.70
2019-02-25T12:11:03.463Z,23.52
2019-02-25T12:12:08.223Z,22.15
2019-02-25T12:13:12.986Z,23.65
2019-02-25T12:14:17.620Z,22.30
2019-02-25T12:15:22.265Z,21.42
2019-02-25T12:16:26.880Z,21.70
2019-02-25T12:17:31.529Z,20.20
2019-02-25T12:18:36.166Z,21.57
2019-02-25T12:19:40.785Z,21.95
2019-02-25T12:20:45.423Z,20.27
2019-02-25T12:21:50.039Z,20.55
2019-02-25T12:22:54.647Z,21.70
2019-02-25T12:23:59.273Z,21.25
2019-02-25T12:25:04.113Z,21.50
2019-02-25T12:26:08.778Z,23.10
2019-02-25T12:27:13.400Z,23.18
2019-02-25T12:28:18.075Z,20.68
2019-02-25T12:29:22.712Z,19.45
2019-02-25T12:30:27.391Z,20.92
2019-02-25T12:31:32.983Z,21.48
2019-02-25T12:32:37.598Z,22.20
2019-02-25T12:33:42.214Z,20.60
2019-02-25T12:34:46.833Z,22.45
2019-02-25T12:35:51.442Z,19.65
2019-02-25T12:36:56.982Z,19.45
2019-02-25T12:38:01.652Z,20.55
2019-02-25T12:39:07.960Z,21.15
2019-02-25T12:40:14.825Z,19.85
2019-02-25T12:41:19.507Z,19.82
2019-02-25T12:42:24.095Z,19.25
2019-02-25T12:43:28.690Z,19.30
2019-02-25T12:44:33.277Z,19.60
2019-02-25T12:45:37.895Z,20.00
2019-02-25T12:46:42.465Z,19.55
2019-02-25T12:47:47.097Z,19.40
2019-02-25T12:48:51.739Z,17.80
2019-02-25T12:49:56.373Z,18.52
2019-02-25T12:51:01.009Z,18.52
2019-02-25T12:52:05.624Z,19.77
2019-02-25T12:53:10.279Z,17.73
2019-02-25T12:54:14.916Z,18.62
2019-02-25T12:55:19.614Z,19.07
2019-02-25T12:56:24.219Z,18.42
2019-02-25T12:57:28.810Z,18.60
2019-02-25T12:58:33.427Z,18.60
2019-02-25T12:59:38.060Z,18.80
2019-02-25T13:00:42.714Z,17.52
2019-02-25T13:01:47.346Z,19.67
2019-02-25T13:02:52.048Z,19.15
2019-02-25T13:03:56.672Z,17.85
2019-02-25T13:05:01.250Z,17.50
2019-02-25T13:06:07.191Z,17.98
2019-02-25T13:07:11.779Z,19.15
2019-02-25T13:08:16.451Z,18.62
2019-02-25T13:09:21.015Z,18.67
2019-02-25T13:10:25.631Z,18.80
2019-02-25T13:11:30.347Z,19.00
2019-02-25T13:12:34.960Z,18.62
2019-02-25T13:13:40.693Z,18.40
2019-02-25T13:14:45.379Z,19.62
2019-02-25T13:15:50.003Z,17.82
2019-02-25T13:16:54.593Z,19.10
2019-02-25T13:18:00.215Z,17.92
2019-02-25T13:19:05.036Z,20.00
2019-02-25T13:20:09.943Z,17.80
2019-02-25T13:21:14.695Z,18.77
2019-02-25T13:22:19.382Z,17.90
2019-02-25T13:23:23.999Z,19.10
2019-02-25T13:24:30.300Z,19.95
2019-02-25T13:25:34.904Z,19.95
2019-02-25T13:26:39.587Z,19.12
2019-02-25T13:27:44.273Z,19.32
2019-02-25T13:28:49.258Z,20.55
2019-02-25T13:29:54.246Z,18.62
2019-02-25T13:31:00.733Z,25.12
2019-02-25T13:32:05.358Z,21.87
2019-02-25T13:33:10.033Z,21.45
2019-02-25T13:34:14.685Z,39.25
2019-02-25T13:35:19.346Z,19.10
2019-02-25T13:36:24.069Z,20.70
2019-02-25T13:37:28.798Z,19.67
2019-02-25T13:38:33.523Z,19.35
2019-02-25T13:39:38.166Z,19.67
2019-02-25T13:40:42.958Z,20.85
2019-02-25T13:41:47.644Z,29.07
2019-02-25T13:42:52.409Z,19.90
2019-02-25T13:43:57.079Z,21.40
2019-02-25T13:45:01.772Z,20.75
2019-02-25T13:46:06.821Z,23.83
2019-02-25T13:47:11.504Z,19.92
2019-02-25T13:48:16.216Z,21.62
2019-02-25T13:49:20.841Z,21.40
2019-02-25T13:50:25.676Z,22.40
2019-02-25T13:51:30.394Z,20.57
2019-02-25T13:52:35.269Z,19.77
2019-02-25T13:53:39.946Z,19.45
2019-02-25T13:54:44.625Z,19.80
2019-02-25T13:55:49.411Z,20.45
2019-02-25T13:56:54.103Z,19.90
2019-02-25T13:57:58.849Z,19.50
2019-02-25T13:59:03.696Z,19.95
2019-02-25T14:00:14.761Z,23.80
2019-02-25T14:01:19.449Z,19.92
2019-02-25T14:02:24.268Z,23.55
2019-02-25T14:03:29.296Z,20.70
2019-02-25T14:04:33.908Z,21.62
2019-02-25T14:05:38.603Z,20.32
2019-02-25T14:06:44.398Z,21.02
2019-02-25T14:07:49.089Z,21.05
2019-02-25T14:08:53.858Z,27.70
2019-02-25T14:09:58.624Z,22.00
2019-02-25T14:11:04.268Z,23.07
2019-02-25T14:12:09.119Z,22.50
2019-02-25T14:13:13.902Z,31.65
2019-02-25T14:14:18.551Z,23.73
2019-02-25T14:15:23.543Z,24.35
2019-02-25T14:16:28.159Z,44.15
2019-02-25T14:17:32.852Z,22.85
2019-02-25T14:18:37.598Z,26.82